Forsyth, Georgia
Current Conditions -  °F | °C
As of 4:35 PM on Wednesday 26 Nov 2014 (Local Time) from KOPN Reporting Station
Clear Clear  
Wind Chill: 57°   Ceiling: Unl
Heat Index: 57°   Visibility: 10mi
Dew Point: 27°   Wind: 13mph
Humidity: 31%   Direction: 290°WNW
Pressure: 30.11"   Gusts: 20mph
Location:  33.03°N, 83.94°W
Report Text: KOPN 262135Z AUTO 29011G17KT 10SM CLR 14/M03 A3011 RMK AO2
Loading
Personal Weather Stations






























Interactive Weather Map New forecast layout! Learn more

10-Day Weather Forecast

Advertisements
Track Severe Weather on mobile